メインページ
METAR-TAF:

METAR-TAF

空港 :

ラハイナ, ハワイ州, アメリカ合衆国

緯度: 21-01N, 経度: 156-38W, 海抜: 40m

現時点の気象観測

当レポートは1時間0分前の02:50(UTC)に作成
東/北東の風 11kt、最大17ktの突風を伴う
気温 25°C
湿度 57%
気圧 1015 hPa
視程: 24.1km
高度4000ftの雲はほとんどない

METAR: PHJH 200250Z 06011G17KT 15SM FEW040 25/16 A2997

時間: 17:50 (03:50 UTC)

予報

当レポートは4時間28分前の23:22(UTC)に作成
予報は20日の 00時(UTC)から 20日の 24時(UTC)まで有効
東/北東の風 12kt
視程: 10km
高度4000ftの雲はほとんどない
20日の 0600時(UTC)から
東/北東の風 4kt
視程: 10km
高度3500ftの雲はほとんどない
20日の 2100時(UTC)から
北東の風 8kt
視程: 10km
高度3000ftの雲はほとんどない
高度4500ftの雲は散在している

TAF: PHJH 192322Z 2000/2024 06012KT P6SM FEW040 FM200600 06004KT P6SM FEW035 FM202100 05008KT P6SM FEW030 SCT045 AMD NOT SKED AFT 200400

4,000以上の空港の気象観測と天気予報(METAR報とTAF報)

利用可能な観測所は地図上に黄色い丸と赤い丸で示す。

丸の上にカーソルを重ねると観測所名を参照できる。

次にクリックすると気象観測と天気予報を参照できる。

マップの切り替え:黒色「×」印の緑ボタンをクリックして拡大、「-」印の緑ボタンをクリックして縮小、緑色の三角印をクリックして隣りの地図に切り替え


METAR-TAF: